sensor_id;sensor_type;location;lat;lon;timestamp;temperature;humidity
17092;DHT22;8661;45.700;4.880;2024-02-15T00:00:02;8.10;99.90
17092;DHT22;8661;45.700;4.880;2024-02-15T00:02:33;8.00;99.90
17092;DHT22;8661;45.700;4.880;2024-02-15T00:05:00;8.00;99.90
17092;DHT22;8661;45.700;4.880;2024-02-15T00:07:27;8.00;99.90
17092;DHT22;8661;45.700;4.880;2024-02-15T00:09:54;8.00;99.90
17092;DHT22;8661;45.700;4.880;2024-02-15T00:12:23;8.00;99.90
17092;DHT22;8661;45.700;4.880;2024-02-15T00:14:50;8.00;99.90
17092;DHT22;8661;45.700;4.880;2024-02-15T00:17:17;8.00;99.90
17092;DHT22;8661;45.700;4.880;2024-02-15T00:19:44;7.90;99.90
17092;DHT22;8661;45.700;4.880;2024-02-15T00:22:12;7.90;99.90
17092;DHT22;8661;45.700;4.880;2024-02-15T00:24:39;7.90;99.90
17092;DHT22;8661;45.700;4.880;2024-02-15T00:27:07;7.90;99.90
17092;DHT22;8661;45.700;4.880;2024-02-15T00:29:35;7.90;99.90
17092;DHT22;8661;45.700;4.880;2024-02-15T00:32:02;7.90;99.90
17092;DHT22;8661;45.700;4.880;2024-02-15T00:34:31;7.90;99.90
17092;DHT22;8661;45.700;4.880;2024-02-15T00:36:59;7.90;99.90
17092;DHT22;8661;45.700;4.880;2024-02-15T00:39:26;7.80;99.90
17092;DHT22;8661;45.700;4.880;2024-02-15T00:41:53;7.80;99.90
17092;DHT22;8661;45.700;4.880;2024-02-15T00:44:21;7.90;99.90
17092;DHT22;8661;45.700;4.880;2024-02-15T00:46:49;7.80;99.90
17092;DHT22;8661;45.700;4.880;2024-02-15T00:49:16;7.80;99.90
17092;DHT22;8661;45.700;4.880;2024-02-15T00:51:46;7.80;99.90
17092;DHT22;8661;45.700;4.880;2024-02-15T00:54:14;7.80;99.90
17092;DHT22;8661;45.700;4.880;2024-02-15T00:56:41;7.80;99.90
17092;DHT22;8661;45.700;4.880;2024-02-15T00:59:11;7.80;99.90
17092;DHT22;8661;45.700;4.880;2024-02-15T01:01:38;7.80;99.90
17092;DHT22;8661;45.700;4.880;2024-02-15T01:04:07;7.80;99.90
17092;DHT22;8661;45.700;4.880;2024-02-15T01:06:34;7.70;99.90
17092;DHT22;8661;45.700;4.880;2024-02-15T01:09:02;7.80;99.90
17092;DHT22;8661;45.700;4.880;2024-02-15T01:11:29;7.80;99.90
17092;DHT22;8661;45.700;4.880;2024-02-15T01:13:57;7.70;99.90
17092;DHT22;8661;45.700;4.880;2024-02-15T01:16:24;7.70;99.90
17092;DHT22;8661;45.700;4.880;2024-02-15T01:18:51;7.70;99.90
17092;DHT22;8661;45.700;4.880;2024-02-15T01:21:20;7.70;99.90
17092;DHT22;8661;45.700;4.880;2024-02-15T01:23:47;7.60;99.90
17092;DHT22;8661;45.700;4.880;2024-02-15T01:26:14;7.60;99.90
17092;DHT22;8661;45.700;4.880;2024-02-15T01:28:41;7.60;99.90
17092;DHT22;8661;45.700;4.880;2024-02-15T01:31:09;7.60;99.90
17092;DHT22;8661;45.700;4.880;2024-02-15T01:33:36;7.60;99.90
17092;DHT22;8661;45.700;4.880;2024-02-15T01:36:04;7.50;99.90
17092;DHT22;8661;45.700;4.880;2024-02-15T01:38:33;7.60;99.90
17092;DHT22;8661;45.700;4.880;2024-02-15T01:41:00;7.60;99.90
17092;DHT22;8661;45.700;4.880;2024-02-15T01:43:27;7.60;99.90
17092;DHT22;8661;45.700;4.880;2024-02-15T01:45:55;7.60;99.90
17092;DHT22;8661;45.700;4.880;2024-02-15T01:48:24;7.60;99.90
17092;DHT22;8661;45.700;4.880;2024-02-15T01:50:52;7.60;99.90
17092;DHT22;8661;45.700;4.880;2024-02-15T01:53:19;7.60;99.90
17092;DHT22;8661;45.700;4.880;2024-02-15T01:55:48;7.50;99.90
17092;DHT22;8661;45.700;4.880;2024-02-15T01:58:15;7.50;99.90
17092;DHT22;8661;45.700;4.880;2024-02-15T02:00:42;7.50;99.90
17092;DHT22;8661;45.700;4.880;2024-02-15T02:03:10;7.50;99.90
17092;DHT22;8661;45.700;4.880;2024-02-15T02:05:40;7.50;99.90
17092;DHT22;8661;45.700;4.880;2024-02-15T02:08:07;7.50;99.90
17092;DHT22;8661;45.700;4.880;2024-02-15T02:10:35;7.50;99.90
17092;DHT22;8661;45.700;4.880;2024-02-15T02:13:03;7.50;99.90
17092;DHT22;8661;45.700;4.880;2024-02-15T02:15:31;7.40;99.90
17092;DHT22;8661;45.700;4.880;2024-02-15T02:17:59;7.40;99.90
17092;DHT22;8661;45.700;4.880;2024-02-15T02:20:27;7.40;99.90
17092;DHT22;8661;45.700;4.880;2024-02-15T02:23:02;7.40;99.90
17092;DHT22;8661;45.700;4.880;2024-02-15T02:25:34;7.40;99.90
17092;DHT22;8661;45.700;4.880;2024-02-15T02:28:01;7.40;99.90
17092;DHT22;8661;45.700;4.880;2024-02-15T02:30:28;7.40;99.90
17092;DHT22;8661;45.700;4.880;2024-02-15T02:32:56;7.40;99.90
17092;DHT22;8661;45.700;4.880;2024-02-15T02:35:24;7.40;99.90
17092;DHT22;8661;45.700;4.880;2024-02-15T02:37:52;7.40;99.90
17092;DHT22;8661;45.700;4.880;2024-02-15T02:40:19;7.40;99.90
17092;DHT22;8661;45.700;4.880;2024-02-15T02:42:49;7.40;99.90
17092;DHT22;8661;45.700;4.880;2024-02-15T02:45:17;7.30;99.90
17092;DHT22;8661;45.700;4.880;2024-02-15T02:47:45;7.30;99.90
17092;DHT22;8661;45.700;4.880;2024-02-15T02:50:12;7.30;99.90
17092;DHT22;8661;45.700;4.880;2024-02-15T02:52:39;7.30;99.90
17092;DHT22;8661;45.700;4.880;2024-02-15T02:55:07;7.30;99.90
17092;DHT22;8661;45.700;4.880;2024-02-15T02:57:34;7.40;99.90
17092;DHT22;8661;45.700;4.880;2024-02-15T03:00:05;7.40;99.90
17092;DHT22;8661;45.700;4.880;2024-02-15T03:02:34;7.50;99.90
17092;DHT22;8661;45.700;4.880;2024-02-15T03:05:03;7.50;99.90
17092;DHT22;8661;45.700;4.880;2024-02-15T03:07:33;7.60;99.90
17092;DHT22;8661;45.700;4.880;2024-02-15T03:10:00;7.70;99.90
17092;DHT22;8661;45.700;4.880;2024-02-15T03:12:28;7.90;99.90
17092;DHT22;8661;45.700;4.880;2024-02-15T03:14:55;8.00;99.90
17092;DHT22;8661;45.700;4.880;2024-02-15T03:17:24;8.00;99.90
17092;DHT22;8661;45.700;4.880;2024-02-15T03:19:51;8.00;99.90
17092;DHT22;8661;45.700;4.880;2024-02-15T03:22:18;8.00;99.90
17092;DHT22;8661;45.700;4.880;2024-02-15T03:24:46;8.00;99.90
17092;DHT22;8661;45.700;4.880;2024-02-15T03:27:12;8.00;99.90
17092;DHT22;8661;45.700;4.880;2024-02-15T03:29:39;7.90;99.90
17092;DHT22;8661;45.700;4.880;2024-02-15T03:32:06;7.90;99.90
17092;DHT22;8661;45.700;4.880;2024-02-15T03:34:36;7.90;99.90
17092;DHT22;8661;45.700;4.880;2024-02-15T03:37:05;7.90;99.90
17092;DHT22;8661;45.700;4.880;2024-02-15T03:39:32;7.80;99.90
17092;DHT22;8661;45.700;4.880;2024-02-15T03:41:59;7.70;99.90
17092;DHT22;8661;45.700;4.880;2024-02-15T03:44:26;7.70;99.90
17092;DHT22;8661;45.700;4.880;2024-02-15T03:46:53;7.70;99.90
17092;DHT22;8661;45.700;4.880;2024-02-15T03:49:20;7.70;99.90
17092;DHT22;8661;45.700;4.880;2024-02-15T03:51:49;7.60;99.90
17092;DHT22;8661;45.700;4.880;2024-02-15T03:54:16;7.60;99.90
17092;DHT22;8661;45.700;4.880;2024-02-15T03:56:47;7.60;99.90
17092;DHT22;8661;45.700;4.880;2024-02-15T03:59:17;7.50;99.90
17092;DHT22;8661;45.700;4.880;2024-02-15T04:01:45;7.40;99.90
17092;DHT22;8661;45.700;4.880;2024-02-15T04:04:15;7.40;99.90
17092;DHT22;8661;45.700;4.880;2024-02-15T04:06:42;7.30;99.90
17092;DHT22;8661;45.700;4.880;2024-02-15T04:09:10;7.30;99.90
17092;DHT22;8661;45.700;4.880;2024-02-15T04:11:37;7.30;99.90
17092;DHT22;8661;45.700;4.880;2024-02-15T04:14:04;7.30;99.90
17092;DHT22;8661;45.700;4.880;2024-02-15T04:16:32;7.30;99.90
17092;DHT22;8661;45.700;4.880;2024-02-15T04:19:01;7.30;99.90
17092;DHT22;8661;45.700;4.880;2024-02-15T04:21:28;7.40;99.90
17092;DHT22;8661;45.700;4.880;2024-02-15T04:23:56;7.50;99.90
17092;DHT22;8661;45.700;4.880;2024-02-15T04:26:24;7.50;99.90
17092;DHT22;8661;45.700;4.880;2024-02-15T04:28:52;7.60;99.90
17092;DHT22;8661;45.700;4.880;2024-02-15T04:31:20;7.70;99.90
17092;DHT22;8661;45.700;4.880;2024-02-15T04:33:52;7.80;99.90
17092;DHT22;8661;45.700;4.880;2024-02-15T04:36:19;7.80;99.90
17092;DHT22;8661;45.700;4.880;2024-02-15T04:38:49;7.80;99.90
17092;DHT22;8661;45.700;4.880;2024-02-15T04:41:17;7.80;99.90
17092;DHT22;8661;45.700;4.880;2024-02-15T04:43:50;7.90;99.90
17092;DHT22;8661;45.700;4.880;2024-02-15T04:46:17;7.90;99.90
17092;DHT22;8661;45.700;4.880;2024-02-15T04:48:46;7.90;99.90
17092;DHT22;8661;45.700;4.880;2024-02-15T04:51:15;8.00;99.90
17092;DHT22;8661;45.700;4.880;2024-02-15T04:53:42;8.00;99.90
17092;DHT22;8661;45.700;4.880;2024-02-15T04:56:09;8.10;99.90
17092;DHT22;8661;45.700;4.880;2024-02-15T04:58:39;8.10;99.90
17092;DHT22;8661;45.700;4.880;2024-02-15T05:01:14;8.20;99.90
17092;DHT22;8661;45.700;4.880;2024-02-15T05:03:41;8.20;99.90
17092;DHT22;8661;45.700;4.880;2024-02-15T05:06:08;8.20;99.90
17092;DHT22;8661;45.700;4.880;2024-02-15T05:08:35;8.20;99.90
17092;DHT22;8661;45.700;4.880;2024-02-15T05:11:04;8.20;99.90
17092;DHT22;8661;45.700;4.880;2024-02-15T05:13:32;8.20;99.90
17092;DHT22;8661;45.700;4.880;2024-02-15T05:15:59;8.20;99.90
17092;DHT22;8661;45.700;4.880;2024-02-15T05:18:27;8.20;99.90
17092;DHT22;8661;45.700;4.880;2024-02-15T05:20:56;8.10;99.90
17092;DHT22;8661;45.700;4.880;2024-02-15T05:23:23;8.10;99.90
17092;DHT22;8661;45.700;4.880;2024-02-15T05:25:50;8.00;99.90
17092;DHT22;8661;45.700;4.880;2024-02-15T05:28:19;8.00;99.90
17092;DHT22;8661;45.700;4.880;2024-02-15T05:31:09;8.00;99.90
17092;DHT22;8661;45.700;4.880;2024-02-15T05:33:38;8.00;99.90
17092;DHT22;8661;45.700;4.880;2024-02-15T05:36:08;7.90;99.90
17092;DHT22;8661;45.700;4.880;2024-02-15T05:38:35;7.90;99.90
17092;DHT22;8661;45.700;4.880;2024-02-15T05:41:03;7.90;99.90
17092;DHT22;8661;45.700;4.880;2024-02-15T05:43:30;7.80;99.90
17092;DHT22;8661;45.700;4.880;2024-02-15T05:45:57;7.80;99.90
17092;DHT22;8661;45.700;4.880;2024-02-15T05:48:26;7.70;99.90
17092;DHT22;8661;45.700;4.880;2024-02-15T05:50:55;7.70;99.90
17092;DHT22;8661;45.700;4.880;2024-02-15T05:53:22;7.70;99.90
17092;DHT22;8661;45.700;4.880;2024-02-15T05:55:50;7.60;99.90
17092;DHT22;8661;45.700;4.880;2024-02-15T05:58:17;7.50;99.90
17092;DHT22;8661;45.700;4.880;2024-02-15T06:00:44;7.60;99.90
17092;DHT22;8661;45.700;4.880;2024-02-15T06:03:15;7.50;99.90
17092;DHT22;8661;45.700;4.880;2024-02-15T06:05:42;7.50;99.90
17092;DHT22;8661;45.700;4.880;2024-02-15T06:08:11;7.50;99.90
17092;DHT22;8661;45.700;4.880;2024-02-15T06:10:39;7.40;99.90
17092;DHT22;8661;45.700;4.880;2024-02-15T06:13:06;7.30;99.90
17092;DHT22;8661;45.700;4.880;2024-02-15T06:15:34;7.30;99.90
17092;DHT22;8661;45.700;4.880;2024-02-15T06:18:01;7.30;99.90
17092;DHT22;8661;45.700;4.880;2024-02-15T06:20:34;7.20;99.90
17092;DHT22;8661;45.700;4.880;2024-02-15T06:23:01;7.10;99.90
17092;DHT22;8661;45.700;4.880;2024-02-15T06:25:31;7.10;99.90
17092;DHT22;8661;45.700;4.880;2024-02-15T06:27:58;7.00;99.90
17092;DHT22;8661;45.700;4.880;2024-02-15T06:30:28;7.00;99.90
17092;DHT22;8661;45.700;4.880;2024-02-15T06:33:12;7.00;99.90
17092;DHT22;8661;45.700;4.880;2024-02-15T06:35:57;6.90;99.90
17092;DHT22;8661;45.700;4.880;2024-02-15T06:38:41;6.80;99.90
17092;DHT22;8661;45.700;4.880;2024-02-15T06:41:27;6.80;99.90
17092;DHT22;8661;45.700;4.880;2024-02-15T06:43:54;6.70;99.90
17092;DHT22;8661;45.700;4.880;2024-02-15T06:46:22;6.70;99.90
17092;DHT22;8661;45.700;4.880;2024-02-15T06:48:49;6.70;99.90
17092;DHT22;8661;45.700;4.880;2024-02-15T06:51:18;6.70;99.90
17092;DHT22;8661;45.700;4.880;2024-02-15T06:53:45;6.70;99.90
17092;DHT22;8661;45.700;4.880;2024-02-15T06:56:15;6.70;99.90
17092;DHT22;8661;45.700;4.880;2024-02-15T06:58:43;6.70;99.90
17092;DHT22;8661;45.700;4.880;2024-02-15T07:01:10;6.70;99.90
17092;DHT22;8661;45.700;4.880;2024-02-15T07:03:39;6.70;99.90
17092;DHT22;8661;45.700;4.880;2024-02-15T07:06:06;6.70;99.90
17092;DHT22;8661;45.700;4.880;2024-02-15T07:08:33;6.80;99.90
17092;DHT22;8661;45.700;4.880;2024-02-15T07:11:01;6.90;99.90
17092;DHT22;8661;45.700;4.880;2024-02-15T07:13:29;7.00;99.90
17092;DHT22;8661;45.700;4.880;2024-02-15T07:15:58;7.10;99.90
17092;DHT22;8661;45.700;4.880;2024-02-15T07:18:25;7.10;99.90
17092;DHT22;8661;45.700;4.880;2024-02-15T07:20:52;7.20;99.90
17092;DHT22;8661;45.700;4.880;2024-02-15T07:23:19;7.40;99.90
17092;DHT22;8661;45.700;4.880;2024-02-15T07:25:46;7.60;99.90
17092;DHT22;8661;45.700;4.880;2024-02-15T07:28:14;7.90;99.90
17092;DHT22;8661;45.700;4.880;2024-02-15T07:30:41;8.20;99.90
17092;DHT22;8661;45.700;4.880;2024-02-15T07:33:09;8.50;99.90
17092;DHT22;8661;45.700;4.880;2024-02-15T07:35:36;8.70;99.90
17092;DHT22;8661;45.700;4.880;2024-02-15T07:38:03;9.10;99.90
17092;DHT22;8661;45.700;4.880;2024-02-15T07:40:30;9.40;99.90
17092;DHT22;8661;45.700;4.880;2024-02-15T07:42:57;9.70;99.90
17092;DHT22;8661;45.700;4.880;2024-02-15T07:45:24;10.00;99.90
17092;DHT22;8661;45.700;4.880;2024-02-15T07:47:51;10.30;99.90
17092;DHT22;8661;45.700;4.880;2024-02-15T07:50:20;10.70;99.90
17092;DHT22;8661;45.700;4.880;2024-02-15T07:52:49;11.00;99.90
17092;DHT22;8661;45.700;4.880;2024-02-15T07:55:16;11.30;99.90
17092;DHT22;8661;45.700;4.880;2024-02-15T07:57:46;12.40;99.90
17092;DHT22;8661;45.700;4.880;2024-02-15T08:02:42;14.80;99.90
17092;DHT22;8661;45.700;4.880;2024-02-15T08:05:11;15.40;99.90
17092;DHT22;8661;45.700;4.880;2024-02-15T08:07:43;15.50;99.90
17092;DHT22;8661;45.700;4.880;2024-02-15T08:10:11;15.50;99.90
17092;DHT22;8661;45.700;4.880;2024-02-15T08:12:40;15.50;99.90
17092;DHT22;8661;45.700;4.880;2024-02-15T08:15:09;15.40;99.90
17092;DHT22;8661;45.700;4.880;2024-02-15T08:17:38;15.40;99.90
17092;DHT22;8661;45.700;4.880;2024-02-15T08:20:07;15.60;99.90
17092;DHT22;8661;45.700;4.880;2024-02-15T08:22:34;15.90;99.90
17092;DHT22;8661;45.700;4.880;2024-02-15T08:25:06;16.20;99.90
17092;DHT22;8661;45.700;4.880;2024-02-15T08:27:37;16.50;99.90
17092;DHT22;8661;45.700;4.880;2024-02-15T08:30:07;16.50;99.60
17092;DHT22;8661;45.700;4.880;2024-02-15T08:32:36;16.10;99.40
17092;DHT22;8661;45.700;4.880;2024-02-15T08:35:03;15.60;99.90
17092;DHT22;8661;45.700;4.880;2024-02-15T08:37:31;15.20;99.90
17092;DHT22;8661;45.700;4.880;2024-02-15T08:39:59;14.80;99.90
17092;DHT22;8661;45.700;4.880;2024-02-15T08:42:28;14.50;99.90
17092;DHT22;8661;45.700;4.880;2024-02-15T08:44:55;14.40;99.90
17092;DHT22;8661;45.700;4.880;2024-02-15T08:47:22;14.30;99.90
17092;DHT22;8661;45.700;4.880;2024-02-15T08:49:49;14.20;99.90
17092;DHT22;8661;45.700;4.880;2024-02-15T08:52:16;14.10;99.90
17092;DHT22;8661;45.700;4.880;2024-02-15T08:54:44;14.00;99.90
17092;DHT22;8661;45.700;4.880;2024-02-15T08:57:11;14.00;99.90
17092;DHT22;8661;45.700;4.880;2024-02-15T08:59:40;14.00;99.90
17092;DHT22;8661;45.700;4.880;2024-02-15T09:02:08;14.00;99.90
17092;DHT22;8661;45.700;4.880;2024-02-15T09:04:35;13.90;99.90
17092;DHT22;8661;45.700;4.880;2024-02-15T09:07:02;14.00;99.90
17092;DHT22;8661;45.700;4.880;2024-02-15T09:09:30;14.00;99.90
17092;DHT22;8661;45.700;4.880;2024-02-15T09:12:01;14.10;99.90
17092;DHT22;8661;45.700;4.880;2024-02-15T09:14:30;14.20;99.90
17092;DHT22;8661;45.700;4.880;2024-02-15T09:16:59;14.20;99.90
17092;DHT22;8661;45.700;4.880;2024-02-15T09:19:26;14.40;99.90
17092;DHT22;8661;45.700;4.880;2024-02-15T09:21:53;14.40;99.90
17092;DHT22;8661;45.700;4.880;2024-02-15T09:24:20;14.50;99.90
17092;DHT22;8661;45.700;4.880;2024-02-15T09:26:50;14.50;99.90
17092;DHT22;8661;45.700;4.880;2024-02-15T09:29:18;14.50;99.90
17092;DHT22;8661;45.700;4.880;2024-02-15T09:31:46;14.60;99.90
17092;DHT22;8661;45.700;4.880;2024-02-15T09:34:15;14.70;99.90
17092;DHT22;8661;45.700;4.880;2024-02-15T09:36:42;14.70;99.90
17092;DHT22;8661;45.700;4.880;2024-02-15T09:39:09;14.80;99.90
17092;DHT22;8661;45.700;4.880;2024-02-15T09:41:39;14.90;99.90
17092;DHT22;8661;45.700;4.880;2024-02-15T09:44:08;14.90;99.90
17092;DHT22;8661;45.700;4.880;2024-02-15T09:46:39;15.00;99.90
17092;DHT22;8661;45.700;4.880;2024-02-15T09:49:11;15.10;99.90
17092;DHT22;8661;45.700;4.880;2024-02-15T09:51:40;15.30;99.90
17092;DHT22;8661;45.700;4.880;2024-02-15T09:54:08;15.70;99.50
17092;DHT22;8661;45.700;4.880;2024-02-15T09:56:36;16.00;98.70
17092;DHT22;8661;45.700;4.880;2024-02-15T09:59:03;16.20;97.90
17092;DHT22;8661;45.700;4.880;2024-02-15T10:01:31;16.30;98.90
17092;DHT22;8661;45.700;4.880;2024-02-15T10:04:04;16.30;98.50
17092;DHT22;8661;45.700;4.880;2024-02-15T10:06:32;16.20;97.50
17092;DHT22;8661;45.700;4.880;2024-02-15T10:09:25;16.00;97.70
17092;DHT22;8661;45.700;4.880;2024-02-15T10:11:57;15.80;96.60
17092;DHT22;8661;45.700;4.880;2024-02-15T10:14:25;15.70;97.10
17092;DHT22;8661;45.700;4.880;2024-02-15T10:16:51;15.70;97.40
17092;DHT22;8661;45.700;4.880;2024-02-15T10:19:19;15.80;97.60
17092;DHT22;8661;45.700;4.880;2024-02-15T10:21:51;15.90;97.60
17092;DHT22;8661;45.700;4.880;2024-02-15T10:24:21;15.90;97.70
17092;DHT22;8661;45.700;4.880;2024-02-15T10:26:51;16.00;98.00
17092;DHT22;8661;45.700;4.880;2024-02-15T10:29:19;15.90;97.90
17092;DHT22;8661;45.700;4.880;2024-02-15T10:31:53;15.90;98.20
17092;DHT22;8661;45.700;4.880;2024-02-15T10:34:21;15.80;99.20
17092;DHT22;8661;45.700;4.880;2024-02-15T10:36:48;15.70;99.90
17092;DHT22;8661;45.700;4.880;2024-02-15T10:39:19;15.70;99.90
17092;DHT22;8661;45.700;4.880;2024-02-15T10:41:47;15.60;99.10
17092;DHT22;8661;45.700;4.880;2024-02-15T10:44:17;15.60;99.20
17092;DHT22;8661;45.700;4.880;2024-02-15T10:46:46;15.60;99.30
17092;DHT22;8661;45.700;4.880;2024-02-15T10:49:17;15.60;99.40
17092;DHT22;8661;45.700;4.880;2024-02-15T10:51:50;16.00;99.50
17092;DHT22;8661;45.700;4.880;2024-02-15T10:54:27;16.10;99.20
17092;DHT22;8661;45.700;4.880;2024-02-15T10:57:03;16.40;98.60
17092;DHT22;8661;45.700;4.880;2024-02-15T10:59:35;16.80;98.20
17092;DHT22;8661;45.700;4.880;2024-02-15T11:05:01;16.80;97.40
17092;DHT22;8661;45.700;4.880;2024-02-15T11:07:29;16.70;98.20
17092;DHT22;8661;45.700;4.880;2024-02-15T11:09:58;16.60;98.20
17092;DHT22;8661;45.700;4.880;2024-02-15T11:12:26;16.50;98.20
17092;DHT22;8661;45.700;4.880;2024-02-15T11:14:54;16.50;98.30
17092;DHT22;8661;45.700;4.880;2024-02-15T11:17:47;16.30;98.40
17092;DHT22;8661;45.700;4.880;2024-02-15T11:20:48;16.30;98.80
17092;DHT22;8661;45.700;4.880;2024-02-15T11:23:27;16.20;99.00
17092;DHT22;8661;45.700;4.880;2024-02-15T11:25:54;16.20;99.30
17092;DHT22;8661;45.700;4.880;2024-02-15T11:28:40;16.30;99.30
17092;DHT22;8661;45.700;4.880;2024-02-15T11:34:43;16.60;98.90
17092;DHT22;8661;45.700;4.880;2024-02-15T11:37:54;16.70;98.80
17092;DHT22;8661;45.700;4.880;2024-02-15T11:40:26;16.90;98.50
17092;DHT22;8661;45.700;4.880;2024-02-15T11:42:55;17.00;98.40
17092;DHT22;8661;45.700;4.880;2024-02-15T11:45:24;17.20;98.20
17092;DHT22;8661;45.700;4.880;2024-02-15T11:47:53;17.30;98.00
17092;DHT22;8661;45.700;4.880;2024-02-15T11:50:22;17.40;97.90
17092;DHT22;8661;45.700;4.880;2024-02-15T11:52:51;17.50;97.90
17092;DHT22;8661;45.700;4.880;2024-02-15T12:11:32;18.00;98.20
17092;DHT22;8661;45.700;4.880;2024-02-15T12:14:17;17.90;98.50
17092;DHT22;8661;45.700;4.880;2024-02-15T12:17:05;17.90;98.30
17092;DHT22;8661;45.700;4.880;2024-02-15T12:19:50;18.00;98.30
17092;DHT22;8661;45.700;4.880;2024-02-15T12:24:55;19.00;94.60
17092;DHT22;8661;45.700;4.880;2024-02-15T12:27:23;19.40;94.30
17092;DHT22;8661;45.700;4.880;2024-02-15T12:29:55;19.80;93.50
17092;DHT22;8661;45.700;4.880;2024-02-15T12:32:23;20.10;92.90
17092;DHT22;8661;45.700;4.880;2024-02-15T12:34:51;20.40;92.70
17092;DHT22;8661;45.700;4.880;2024-02-15T12:37:20;20.70;92.00
17092;DHT22;8661;45.700;4.880;2024-02-15T12:39:48;20.80;91.70
17092;DHT22;8661;45.700;4.880;2024-02-15T12:42:15;21.50;91.00
17092;DHT22;8661;45.700;4.880;2024-02-15T12:44:45;21.70;90.10
17092;DHT22;8661;45.700;4.880;2024-02-15T12:47:20;21.60;89.40
17092;DHT22;8661;45.700;4.880;2024-02-15T12:49:47;21.70;89.10
17092;DHT22;8661;45.700;4.880;2024-02-15T12:52:36;21.70;88.30
17092;DHT22;8661;45.700;4.880;2024-02-15T12:55:14;21.60;86.80
17092;DHT22;8661;45.700;4.880;2024-02-15T12:57:43;21.80;86.90
17092;DHT22;8661;45.700;4.880;2024-02-15T13:00:18;21.70;87.70
17092;DHT22;8661;45.700;4.880;2024-02-15T13:02:48;21.10;88.20
17092;DHT22;8661;45.700;4.880;2024-02-15T13:05:19;20.50;90.40
17092;DHT22;8661;45.700;4.880;2024-02-15T13:07:49;20.10;90.70
17092;DHT22;8661;45.700;4.880;2024-02-15T13:10:16;20.00;90.90
17092;DHT22;8661;45.700;4.880;2024-02-15T13:12:44;19.70;91.20
17092;DHT22;8661;45.700;4.880;2024-02-15T13:15:13;19.70;91.10
17092;DHT22;8661;45.700;4.880;2024-02-15T13:17:52;19.80;90.70
17092;DHT22;8661;45.700;4.880;2024-02-15T13:20:19;19.80;90.80
17092;DHT22;8661;45.700;4.880;2024-02-15T13:22:57;19.80;90.70
17092;DHT22;8661;45.700;4.880;2024-02-15T13:25:28;20.00;90.70
17092;DHT22;8661;45.700;4.880;2024-02-15T13:27:55;20.20;90.50
17092;DHT22;8661;45.700;4.880;2024-02-15T13:30:23;20.20;90.10
17092;DHT22;8661;45.700;4.880;2024-02-15T13:32:53;19.90;90.40
17092;DHT22;8661;45.700;4.880;2024-02-15T13:35:21;19.90;90.70
17092;DHT22;8661;45.700;4.880;2024-02-15T13:37:50;19.70;90.70
17092;DHT22;8661;45.700;4.880;2024-02-15T13:40:21;19.70;90.50
17092;DHT22;8661;45.700;4.880;2024-02-15T13:42:50;19.70;90.70
17092;DHT22;8661;45.700;4.880;2024-02-15T13:45:19;19.40;90.70
17092;DHT22;8661;45.700;4.880;2024-02-15T13:47:48;19.20;91.00
17092;DHT22;8661;45.700;4.880;2024-02-15T13:50:16;19.00;91.20
17092;DHT22;8661;45.700;4.880;2024-02-15T13:52:44;19.10;91.20
17092;DHT22;8661;45.700;4.880;2024-02-15T13:55:12;19.30;90.90
17092;DHT22;8661;45.700;4.880;2024-02-15T13:57:41;19.40;90.70
17092;DHT22;8661;45.700;4.880;2024-02-15T14:00:09;19.40;90.60
17092;DHT22;8661;45.700;4.880;2024-02-15T14:02:40;19.30;90.20
17092;DHT22;8661;45.700;4.880;2024-02-15T14:05:08;19.30;90.30
17092;DHT22;8661;45.700;4.880;2024-02-15T14:07:37;19.30;90.20
17092;DHT22;8661;45.700;4.880;2024-02-15T14:10:05;19.30;90.00
17092;DHT22;8661;45.700;4.880;2024-02-15T14:12:32;19.20;89.70
17092;DHT22;8661;45.700;4.880;2024-02-15T14:15:01;19.00;90.40
17092;DHT22;8661;45.700;4.880;2024-02-15T14:17:28;18.80;90.60
17092;DHT22;8661;45.700;4.880;2024-02-15T14:19:55;18.70;90.90
17092;DHT22;8661;45.700;4.880;2024-02-15T14:22:23;18.50;90.80
17092;DHT22;8661;45.700;4.880;2024-02-15T14:24:54;18.40;91.00
17092;DHT22;8661;45.700;4.880;2024-02-15T14:27:21;18.20;91.20
17092;DHT22;8661;45.700;4.880;2024-02-15T14:29:49;18.10;91.40
17092;DHT22;8661;45.700;4.880;2024-02-15T14:32:32;18.00;91.70
17092;DHT22;8661;45.700;4.880;2024-02-15T14:35:31;17.80;92.00
17092;DHT22;8661;45.700;4.880;2024-02-15T14:38:01;17.70;92.00
17092;DHT22;8661;45.700;4.880;2024-02-15T14:40:37;17.70;92.20
17092;DHT22;8661;45.700;4.880;2024-02-15T14:43:05;17.60;92.30
17092;DHT22;8661;45.700;4.880;2024-02-15T14:45:33;17.60;92.30
17092;DHT22;8661;45.700;4.880;2024-02-15T14:48:04;17.60;92.30
17092;DHT22;8661;45.700;4.880;2024-02-15T14:50:31;17.50;92.30
17092;DHT22;8661;45.700;4.880;2024-02-15T14:52:58;17.60;92.20
17092;DHT22;8661;45.700;4.880;2024-02-15T14:55:25;17.50;92.10
17092;DHT22;8661;45.700;4.880;2024-02-15T14:57:52;17.60;92.20
17092;DHT22;8661;45.700;4.880;2024-02-15T15:00:19;17.60;92.00
17092;DHT22;8661;45.700;4.880;2024-02-15T15:02:47;17.60;91.70
17092;DHT22;8661;45.700;4.880;2024-02-15T15:05:16;17.50;91.50
17092;DHT22;8661;45.700;4.880;2024-02-15T15:08:01;17.50;91.50
17092;DHT22;8661;45.700;4.880;2024-02-15T15:10:46;17.40;91.20
17092;DHT22;8661;45.700;4.880;2024-02-15T15:13:30;17.50;91.00
17092;DHT22;8661;45.700;4.880;2024-02-15T15:15:58;17.40;90.20
17092;DHT22;8661;45.700;4.880;2024-02-15T15:18:25;17.50;89.70
17092;DHT22;8661;45.700;4.880;2024-02-15T15:20:55;17.40;88.80
17092;DHT22;8661;45.700;4.880;2024-02-15T15:23:22;17.40;87.60
17092;DHT22;8661;45.700;4.880;2024-02-15T15:25:49;17.40;86.10
17092;DHT22;8661;45.700;4.880;2024-02-15T15:28:16;17.40;84.90
17092;DHT22;8661;45.700;4.880;2024-02-15T15:30:44;17.40;83.60
17092;DHT22;8661;45.700;4.880;2024-02-15T15:33:14;17.40;82.80
17092;DHT22;8661;45.700;4.880;2024-02-15T15:35:41;17.40;81.50
17092;DHT22;8661;45.700;4.880;2024-02-15T15:38:10;17.30;81.20
17092;DHT22;8661;45.700;4.880;2024-02-15T15:40:37;17.30;81.00
17092;DHT22;8661;45.700;4.880;2024-02-15T15:43:04;17.20;80.20
17092;DHT22;8661;45.700;4.880;2024-02-15T15:45:33;17.10;80.20
17092;DHT22;8661;45.700;4.880;2024-02-15T15:48:00;17.20;80.40
17092;DHT22;8661;45.700;4.880;2024-02-15T15:50:29;17.10;79.70
17092;DHT22;8661;45.700;4.880;2024-02-15T15:53:01;17.10;79.80
17092;DHT22;8661;45.700;4.880;2024-02-15T15:55:29;17.10;80.60
17092;DHT22;8661;45.700;4.880;2024-02-15T15:57:56;17.00;80.40
17092;DHT22;8661;45.700;4.880;2024-02-15T16:00:24;17.10;80.80
17092;DHT22;8661;45.700;4.880;2024-02-15T16:02:51;17.20;80.90
17092;DHT22;8661;45.700;4.880;2024-02-15T16:05:20;17.20;80.90
17092;DHT22;8661;45.700;4.880;2024-02-15T16:07:47;17.00;80.80
17092;DHT22;8661;45.700;4.880;2024-02-15T16:10:15;16.90;81.20
17092;DHT22;8661;45.700;4.880;2024-02-15T16:12:45;16.80;81.10
17092;DHT22;8661;45.700;4.880;2024-02-15T16:15:12;16.70;80.80
17092;DHT22;8661;45.700;4.880;2024-02-15T16:17:42;16.60;80.60
17092;DHT22;8661;45.700;4.880;2024-02-15T16:20:10;16.60;80.00
17092;DHT22;8661;45.700;4.880;2024-02-15T16:22:39;16.50;79.30
17092;DHT22;8661;45.700;4.880;2024-02-15T16:25:08;16.40;79.20
17092;DHT22;8661;45.700;4.880;2024-02-15T16:27:37;16.40;77.90
17092;DHT22;8661;45.700;4.880;2024-02-15T16:30:07;16.30;77.00
17092;DHT22;8661;45.700;4.880;2024-02-15T16:32:36;16.20;75.80
17092;DHT22;8661;45.700;4.880;2024-02-15T16:35:04;16.10;75.70